sensor_id;sensor_type;location;lat;lon;timestamp;temperature;humidity
8957;DHT22;4513;50.054;8.230;2023-07-08T00:00:10;20.30;85.90
8957;DHT22;4513;50.054;8.230;2023-07-08T00:02:39;20.30;87.30
8957;DHT22;4513;50.054;8.230;2023-07-08T00:05:08;20.30;86.40
8957;DHT22;4513;50.054;8.230;2023-07-08T00:07:35;20.30;86.40
8957;DHT22;4513;50.054;8.230;2023-07-08T00:10:10;20.30;86.50
8957;DHT22;4513;50.054;8.230;2023-07-08T00:12:38;20.30;86.50
8957;DHT22;4513;50.054;8.230;2023-07-08T00:15:06;20.30;86.60
8957;DHT22;4513;50.054;8.230;2023-07-08T00:17:33;20.30;87.10
8957;DHT22;4513;50.054;8.230;2023-07-08T00:20:01;20.20;87.00
8957;DHT22;4513;50.054;8.230;2023-07-08T00:22:28;20.20;87.20
8957;DHT22;4513;50.054;8.230;2023-07-08T00:24:55;20.20;87.10
8957;DHT22;4513;50.054;8.230;2023-07-08T00:27:21;20.30;87.50
8957;DHT22;4513;50.054;8.230;2023-07-08T00:29:48;20.30;87.00
8957;DHT22;4513;50.054;8.230;2023-07-08T00:32:15;20.30;87.20
8957;DHT22;4513;50.054;8.230;2023-07-08T00:34:42;20.50;86.90
8957;DHT22;4513;50.054;8.230;2023-07-08T00:37:12;20.60;87.80
8957;DHT22;4513;50.054;8.230;2023-07-08T00:39:39;20.50;88.00
8957;DHT22;4513;50.054;8.230;2023-07-08T00:42:14;20.50;87.20
8957;DHT22;4513;50.054;8.230;2023-07-08T00:44:42;20.50;87.70
8957;DHT22;4513;50.054;8.230;2023-07-08T00:47:12;20.40;89.50
8957;DHT22;4513;50.054;8.230;2023-07-08T00:49:45;20.40;89.60
8957;DHT22;4513;50.054;8.230;2023-07-08T00:52:31;20.40;88.00
8957;DHT22;4513;50.054;8.230;2023-07-08T00:55:00;20.50;87.60
8957;DHT22;4513;50.054;8.230;2023-07-08T00:57:32;20.40;87.00
8957;DHT22;4513;50.054;8.230;2023-07-08T01:00:02;20.40;87.40
8957;DHT22;4513;50.054;8.230;2023-07-08T01:02:31;20.30;87.80
8957;DHT22;4513;50.054;8.230;2023-07-08T01:05:04;20.30;87.90
8957;DHT22;4513;50.054;8.230;2023-07-08T01:07:33;20.20;87.90
8957;DHT22;4513;50.054;8.230;2023-07-08T01:10:03;20.30;87.70
8957;DHT22;4513;50.054;8.230;2023-07-08T01:12:33;20.20;87.60
8957;DHT22;4513;50.054;8.230;2023-07-08T01:15:03;20.20;88.10
8957;DHT22;4513;50.054;8.230;2023-07-08T01:17:30;20.10;88.50
8957;DHT22;4513;50.054;8.230;2023-07-08T01:19:59;20.00;88.50
8957;DHT22;4513;50.054;8.230;2023-07-08T01:22:27;20.00;88.50
8957;DHT22;4513;50.054;8.230;2023-07-08T01:24:58;20.00;88.40
8957;DHT22;4513;50.054;8.230;2023-07-08T01:27:30;20.00;87.90
8957;DHT22;4513;50.054;8.230;2023-07-08T01:29:58;20.10;87.80
8957;DHT22;4513;50.054;8.230;2023-07-08T01:32:25;20.10;87.80
8957;DHT22;4513;50.054;8.230;2023-07-08T01:34:56;20.10;86.50
8957;DHT22;4513;50.054;8.230;2023-07-08T01:37:33;20.20;86.40
8957;DHT22;4513;50.054;8.230;2023-07-08T01:40:32;20.20;87.10
8957;DHT22;4513;50.054;8.230;2023-07-08T01:43:00;20.00;88.20
8957;DHT22;4513;50.054;8.230;2023-07-08T01:45:31;20.00;88.00
8957;DHT22;4513;50.054;8.230;2023-07-08T01:48:01;20.10;88.40
8957;DHT22;4513;50.054;8.230;2023-07-08T01:50:30;20.10;90.00
8957;DHT22;4513;50.054;8.230;2023-07-08T01:53:00;20.10;89.50
8957;DHT22;4513;50.054;8.230;2023-07-08T01:55:29;20.10;88.90
8957;DHT22;4513;50.054;8.230;2023-07-08T01:57:57;20.10;88.50
8957;DHT22;4513;50.054;8.230;2023-07-08T02:00:24;20.10;88.10
8957;DHT22;4513;50.054;8.230;2023-07-08T02:02:52;20.30;84.40
8957;DHT22;4513;50.054;8.230;2023-07-08T02:05:19;20.40;84.30
8957;DHT22;4513;50.054;8.230;2023-07-08T02:07:45;20.60;83.60
8957;DHT22;4513;50.054;8.230;2023-07-08T02:10:14;20.70;83.40
8957;DHT22;4513;50.054;8.230;2023-07-08T02:12:41;20.60;84.60
8957;DHT22;4513;50.054;8.230;2023-07-08T02:15:09;20.50;85.50
8957;DHT22;4513;50.054;8.230;2023-07-08T02:17:36;20.50;86.10
8957;DHT22;4513;50.054;8.230;2023-07-08T02:20:04;20.40;87.10
8957;DHT22;4513;50.054;8.230;2023-07-08T02:22:31;20.20;88.00
8957;DHT22;4513;50.054;8.230;2023-07-08T02:24:58;20.00;88.00
8957;DHT22;4513;50.054;8.230;2023-07-08T02:27:26;19.80;88.40
8957;DHT22;4513;50.054;8.230;2023-07-08T02:29:53;19.80;87.60
8957;DHT22;4513;50.054;8.230;2023-07-08T02:32:19;19.80;88.20
8957;DHT22;4513;50.054;8.230;2023-07-08T02:34:46;19.80;88.40
8957;DHT22;4513;50.054;8.230;2023-07-08T02:37:13;19.70;88.60
8957;DHT22;4513;50.054;8.230;2023-07-08T02:39:40;19.70;89.10
8957;DHT22;4513;50.054;8.230;2023-07-08T02:42:07;19.70;90.00
8957;DHT22;4513;50.054;8.230;2023-07-08T02:44:35;19.70;88.40
8957;DHT22;4513;50.054;8.230;2023-07-08T02:47:02;19.70;90.10
8957;DHT22;4513;50.054;8.230;2023-07-08T02:49:30;19.60;90.00
8957;DHT22;4513;50.054;8.230;2023-07-08T02:51:56;19.70;90.20
8957;DHT22;4513;50.054;8.230;2023-07-08T02:54:23;19.60;89.70
8957;DHT22;4513;50.054;8.230;2023-07-08T02:56:50;19.50;90.00
8957;DHT22;4513;50.054;8.230;2023-07-08T02:59:17;19.50;90.00
8957;DHT22;4513;50.054;8.230;2023-07-08T03:01:45;19.40;90.20
8957;DHT22;4513;50.054;8.230;2023-07-08T03:04:13;19.40;90.20
8957;DHT22;4513;50.054;8.230;2023-07-08T03:06:40;19.30;89.90
8957;DHT22;4513;50.054;8.230;2023-07-08T03:09:07;19.30;90.10
8957;DHT22;4513;50.054;8.230;2023-07-08T03:11:35;19.30;90.40
8957;DHT22;4513;50.054;8.230;2023-07-08T03:14:02;19.20;90.20
8957;DHT22;4513;50.054;8.230;2023-07-08T03:16:29;19.20;90.70
8957;DHT22;4513;50.054;8.230;2023-07-08T03:18:57;19.10;90.80
8957;DHT22;4513;50.054;8.230;2023-07-08T03:21:24;19.00;90.80
8957;DHT22;4513;50.054;8.230;2023-07-08T03:23:52;19.10;90.60
8957;DHT22;4513;50.054;8.230;2023-07-08T03:26:21;19.10;91.10
8957;DHT22;4513;50.054;8.230;2023-07-08T03:28:48;19.20;90.90
8957;DHT22;4513;50.054;8.230;2023-07-08T03:31:16;19.30;90.60
8957;DHT22;4513;50.054;8.230;2023-07-08T03:33:43;19.30;90.60
8957;DHT22;4513;50.054;8.230;2023-07-08T03:36:14;19.30;90.80
8957;DHT22;4513;50.054;8.230;2023-07-08T03:38:48;19.30;90.90
8957;DHT22;4513;50.054;8.230;2023-07-08T03:41:15;19.40;90.10
8957;DHT22;4513;50.054;8.230;2023-07-08T03:43:42;19.60;89.90
8957;DHT22;4513;50.054;8.230;2023-07-08T03:46:10;19.60;90.10
8957;DHT22;4513;50.054;8.230;2023-07-08T03:48:36;19.60;90.60
8957;DHT22;4513;50.054;8.230;2023-07-08T03:51:04;19.50;90.90
8957;DHT22;4513;50.054;8.230;2023-07-08T03:53:32;19.50;90.70
8957;DHT22;4513;50.054;8.230;2023-07-08T03:55:58;19.40;90.60
8957;DHT22;4513;50.054;8.230;2023-07-08T03:58:25;19.40;90.50
8957;DHT22;4513;50.054;8.230;2023-07-08T04:00:52;19.40;90.50
8957;DHT22;4513;50.054;8.230;2023-07-08T04:03:19;19.40;90.40
8957;DHT22;4513;50.054;8.230;2023-07-08T04:05:46;19.50;90.60
8957;DHT22;4513;50.054;8.230;2023-07-08T04:08:12;19.50;90.70
8957;DHT22;4513;50.054;8.230;2023-07-08T04:10:40;19.50;90.70
8957;DHT22;4513;50.054;8.230;2023-07-08T04:13:07;19.50;90.80
8957;DHT22;4513;50.054;8.230;2023-07-08T04:15:34;19.50;91.20
8957;DHT22;4513;50.054;8.230;2023-07-08T04:18:01;19.40;91.30
8957;DHT22;4513;50.054;8.230;2023-07-08T04:20:27;19.40;91.30
8957;DHT22;4513;50.054;8.230;2023-07-08T04:22:54;19.50;91.20
8957;DHT22;4513;50.054;8.230;2023-07-08T04:25:21;19.50;91.30
8957;DHT22;4513;50.054;8.230;2023-07-08T04:27:51;19.40;91.30
8957;DHT22;4513;50.054;8.230;2023-07-08T04:30:22;19.50;91.30
8957;DHT22;4513;50.054;8.230;2023-07-08T04:32:50;19.50;91.30
8957;DHT22;4513;50.054;8.230;2023-07-08T04:35:17;19.60;91.40
8957;DHT22;4513;50.054;8.230;2023-07-08T04:37:44;19.60;92.20
8957;DHT22;4513;50.054;8.230;2023-07-08T04:40:17;19.80;92.50
8957;DHT22;4513;50.054;8.230;2023-07-08T04:42:45;19.70;92.70
8957;DHT22;4513;50.054;8.230;2023-07-08T04:45:15;19.80;92.70
8957;DHT22;4513;50.054;8.230;2023-07-08T04:47:43;19.80;92.40
8957;DHT22;4513;50.054;8.230;2023-07-08T04:50:17;19.90;92.00
8957;DHT22;4513;50.054;8.230;2023-07-08T04:52:44;19.90;92.00
8957;DHT22;4513;50.054;8.230;2023-07-08T04:55:13;19.90;92.30
8957;DHT22;4513;50.054;8.230;2023-07-08T04:57:39;19.80;92.60
8957;DHT22;4513;50.054;8.230;2023-07-08T05:00:07;19.80;92.80
8957;DHT22;4513;50.054;8.230;2023-07-08T05:02:37;19.80;91.70
8957;DHT22;4513;50.054;8.230;2023-07-08T05:05:04;19.80;92.20
8957;DHT22;4513;50.054;8.230;2023-07-08T05:07:31;19.80;91.00
8957;DHT22;4513;50.054;8.230;2023-07-08T05:09:58;19.90;91.50
8957;DHT22;4513;50.054;8.230;2023-07-08T05:12:26;19.90;91.60
8957;DHT22;4513;50.054;8.230;2023-07-08T05:14:53;19.90;91.10
8957;DHT22;4513;50.054;8.230;2023-07-08T05:17:20;19.90;90.50
8957;DHT22;4513;50.054;8.230;2023-07-08T05:19:49;20.00;90.30
8957;DHT22;4513;50.054;8.230;2023-07-08T05:22:17;20.10;90.80
8957;DHT22;4513;50.054;8.230;2023-07-08T05:24:50;20.20;90.90
8957;DHT22;4513;50.054;8.230;2023-07-08T05:27:18;20.30;90.80
8957;DHT22;4513;50.054;8.230;2023-07-08T05:29:46;20.30;92.20
8957;DHT22;4513;50.054;8.230;2023-07-08T05:32:13;20.30;92.80
8957;DHT22;4513;50.054;8.230;2023-07-08T05:34:41;20.40;92.90
8957;DHT22;4513;50.054;8.230;2023-07-08T05:37:10;20.40;92.40
8957;DHT22;4513;50.054;8.230;2023-07-08T05:39:38;20.40;91.90
8957;DHT22;4513;50.054;8.230;2023-07-08T05:42:05;20.50;94.00
8957;DHT22;4513;50.054;8.230;2023-07-08T05:44:32;20.50;94.30
8957;DHT22;4513;50.054;8.230;2023-07-08T05:46:59;20.60;93.80
8957;DHT22;4513;50.054;8.230;2023-07-08T05:49:25;20.60;92.90
8957;DHT22;4513;50.054;8.230;2023-07-08T05:51:52;20.60;93.50
8957;DHT22;4513;50.054;8.230;2023-07-08T05:54:20;20.60;93.90
8957;DHT22;4513;50.054;8.230;2023-07-08T05:56:48;20.60;93.20
8957;DHT22;4513;50.054;8.230;2023-07-08T05:59:15;20.60;93.40
8957;DHT22;4513;50.054;8.230;2023-07-08T06:01:42;20.60;93.90
8957;DHT22;4513;50.054;8.230;2023-07-08T06:04:09;20.70;94.60
8957;DHT22;4513;50.054;8.230;2023-07-08T06:06:35;20.70;92.30
8957;DHT22;4513;50.054;8.230;2023-07-08T06:09:02;20.80;92.40
8957;DHT22;4513;50.054;8.230;2023-07-08T06:11:30;20.80;90.90
8957;DHT22;4513;50.054;8.230;2023-07-08T06:13:57;21.00;90.70
8957;DHT22;4513;50.054;8.230;2023-07-08T06:16:25;21.10;90.00
8957;DHT22;4513;50.054;8.230;2023-07-08T06:18:52;21.10;91.30
8957;DHT22;4513;50.054;8.230;2023-07-08T06:21:19;21.10;90.80
8957;DHT22;4513;50.054;8.230;2023-07-08T06:23:46;21.10;91.20
8957;DHT22;4513;50.054;8.230;2023-07-08T06:26:13;21.10;91.00
8957;DHT22;4513;50.054;8.230;2023-07-08T06:28:43;21.10;90.40
8957;DHT22;4513;50.054;8.230;2023-07-08T06:31:10;21.10;90.30
8957;DHT22;4513;50.054;8.230;2023-07-08T06:33:37;21.20;91.20
8957;DHT22;4513;50.054;8.230;2023-07-08T06:36:04;21.20;91.70
8957;DHT22;4513;50.054;8.230;2023-07-08T06:38:32;21.20;91.90
8957;DHT22;4513;50.054;8.230;2023-07-08T06:40:59;21.30;92.10
8957;DHT22;4513;50.054;8.230;2023-07-08T06:43:26;21.40;91.60
8957;DHT22;4513;50.054;8.230;2023-07-08T06:45:54;21.50;92.70
8957;DHT22;4513;50.054;8.230;2023-07-08T06:48:21;21.60;92.30
8957;DHT22;4513;50.054;8.230;2023-07-08T06:50:50;21.60;93.10
8957;DHT22;4513;50.054;8.230;2023-07-08T06:53:18;21.50;93.90
8957;DHT22;4513;50.054;8.230;2023-07-08T06:55:45;21.50;93.70
8957;DHT22;4513;50.054;8.230;2023-07-08T06:58:12;21.50;93.40
8957;DHT22;4513;50.054;8.230;2023-07-08T07:00:41;21.60;94.70
8957;DHT22;4513;50.054;8.230;2023-07-08T07:03:10;21.60;95.00
8957;DHT22;4513;50.054;8.230;2023-07-08T07:05:38;21.60;92.80
8957;DHT22;4513;50.054;8.230;2023-07-08T07:08:05;21.70;93.80
8957;DHT22;4513;50.054;8.230;2023-07-08T07:10:33;21.90;93.00
8957;DHT22;4513;50.054;8.230;2023-07-08T07:13:00;21.90;92.70
8957;DHT22;4513;50.054;8.230;2023-07-08T07:15:27;22.00;94.10
8957;DHT22;4513;50.054;8.230;2023-07-08T07:17:56;22.00;94.20
8957;DHT22;4513;50.054;8.230;2023-07-08T07:20:25;22.10;92.60
8957;DHT22;4513;50.054;8.230;2023-07-08T07:22:52;22.20;92.00
8957;DHT22;4513;50.054;8.230;2023-07-08T07:25:19;22.20;91.60
8957;DHT22;4513;50.054;8.230;2023-07-08T07:27:47;22.30;90.70
8957;DHT22;4513;50.054;8.230;2023-07-08T07:30:14;22.30;91.10
8957;DHT22;4513;50.054;8.230;2023-07-08T07:32:41;22.50;91.60
8957;DHT22;4513;50.054;8.230;2023-07-08T07:35:09;22.70;91.60
8957;DHT22;4513;50.054;8.230;2023-07-08T07:37:40;22.90;92.30
8957;DHT22;4513;50.054;8.230;2023-07-08T07:40:08;23.20;91.30
8957;DHT22;4513;50.054;8.230;2023-07-08T07:42:38;23.50;89.90
8957;DHT22;4513;50.054;8.230;2023-07-08T07:45:08;23.70;88.70
8957;DHT22;4513;50.054;8.230;2023-07-08T07:47:36;23.90;82.90
8957;DHT22;4513;50.054;8.230;2023-07-08T07:50:03;24.00;86.70
8957;DHT22;4513;50.054;8.230;2023-07-08T07:52:30;24.20;82.00
8957;DHT22;4513;50.054;8.230;2023-07-08T07:54:58;24.40;80.70
8957;DHT22;4513;50.054;8.230;2023-07-08T07:57:25;24.60;78.10
8957;DHT22;4513;50.054;8.230;2023-07-08T07:59:52;24.90;76.00
8957;DHT22;4513;50.054;8.230;2023-07-08T08:02:19;25.20;75.90
8957;DHT22;4513;50.054;8.230;2023-07-08T08:04:46;25.50;73.30
8957;DHT22;4513;50.054;8.230;2023-07-08T08:07:13;25.80;72.20
8957;DHT22;4513;50.054;8.230;2023-07-08T08:09:40;26.10;70.20
8957;DHT22;4513;50.054;8.230;2023-07-08T08:12:10;26.20;68.00
8957;DHT22;4513;50.054;8.230;2023-07-08T08:14:37;26.10;68.00
8957;DHT22;4513;50.054;8.230;2023-07-08T08:17:05;26.30;69.20
8957;DHT22;4513;50.054;8.230;2023-07-08T08:19:32;26.20;68.40
8957;DHT22;4513;50.054;8.230;2023-07-08T08:21:59;26.20;66.40
8957;DHT22;4513;50.054;8.230;2023-07-08T08:24:26;26.30;67.60
8957;DHT22;4513;50.054;8.230;2023-07-08T08:26:53;26.50;66.90
8957;DHT22;4513;50.054;8.230;2023-07-08T08:29:21;26.80;69.30
8957;DHT22;4513;50.054;8.230;2023-07-08T08:31:48;26.90;67.80
8957;DHT22;4513;50.054;8.230;2023-07-08T08:34:16;27.10;69.50
8957;DHT22;4513;50.054;8.230;2023-07-08T08:36:42;27.30;69.80
8957;DHT22;4513;50.054;8.230;2023-07-08T08:39:09;27.60;67.00
8957;DHT22;4513;50.054;8.230;2023-07-08T08:41:38;28.00;67.20
8957;DHT22;4513;50.054;8.230;2023-07-08T08:44:10;28.20;69.30
8957;DHT22;4513;50.054;8.230;2023-07-08T08:46:45;28.20;64.10
8957;DHT22;4513;50.054;8.230;2023-07-08T08:49:20;28.30;63.80
8957;DHT22;4513;50.054;8.230;2023-07-08T08:51:50;28.40;63.70
8957;DHT22;4513;50.054;8.230;2023-07-08T08:54:17;28.40;64.70
8957;DHT22;4513;50.054;8.230;2023-07-08T08:56:51;28.40;63.10
8957;DHT22;4513;50.054;8.230;2023-07-08T08:59:27;28.40;64.20
8957;DHT22;4513;50.054;8.230;2023-07-08T09:01:59;28.40;64.70
8957;DHT22;4513;50.054;8.230;2023-07-08T09:04:31;28.30;64.40
8957;DHT22;4513;50.054;8.230;2023-07-08T09:07:04;28.30;64.80
8957;DHT22;4513;50.054;8.230;2023-07-08T09:09:37;28.20;62.10
8957;DHT22;4513;50.054;8.230;2023-07-08T09:12:06;28.00;62.50
8957;DHT22;4513;50.054;8.230;2023-07-08T09:14:37;27.90;65.10
8957;DHT22;4513;50.054;8.230;2023-07-08T09:17:14;27.90;64.50
8957;DHT22;4513;50.054;8.230;2023-07-08T09:19:46;27.90;62.80
8957;DHT22;4513;50.054;8.230;2023-07-08T09:22:20;28.10;64.20
8957;DHT22;4513;50.054;8.230;2023-07-08T09:24:51;28.10;65.40
8957;DHT22;4513;50.054;8.230;2023-07-08T09:27:20;28.10;64.30
8957;DHT22;4513;50.054;8.230;2023-07-08T09:29:47;28.10;64.10
8957;DHT22;4513;50.054;8.230;2023-07-08T09:32:17;27.90;65.80
8957;DHT22;4513;50.054;8.230;2023-07-08T09:34:46;27.80;65.80
8957;DHT22;4513;50.054;8.230;2023-07-08T09:37:24;27.70;63.70
8957;DHT22;4513;50.054;8.230;2023-07-08T09:39:52;27.70;63.90
8957;DHT22;4513;50.054;8.230;2023-07-08T09:42:21;27.80;64.90
8957;DHT22;4513;50.054;8.230;2023-07-08T09:44:48;27.80;63.80
8957;DHT22;4513;50.054;8.230;2023-07-08T09:47:23;27.80;64.40
8957;DHT22;4513;50.054;8.230;2023-07-08T09:49:52;27.80;62.30
8957;DHT22;4513;50.054;8.230;2023-07-08T09:52:19;27.80;65.50
8957;DHT22;4513;50.054;8.230;2023-07-08T09:54:46;27.90;63.30
8957;DHT22;4513;50.054;8.230;2023-07-08T09:57:26;28.00;62.70
8957;DHT22;4513;50.054;8.230;2023-07-08T09:59:55;28.30;64.40
8957;DHT22;4513;50.054;8.230;2023-07-08T10:02:31;29.00;61.70
8957;DHT22;4513;50.054;8.230;2023-07-08T10:05:01;29.90;59.70
8957;DHT22;4513;50.054;8.230;2023-07-08T10:07:30;30.40;59.40
8957;DHT22;4513;50.054;8.230;2023-07-08T10:09:59;30.50;59.10
8957;DHT22;4513;50.054;8.230;2023-07-08T10:12:27;30.50;58.70
8957;DHT22;4513;50.054;8.230;2023-07-08T10:14:59;30.60;59.90
8957;DHT22;4513;50.054;8.230;2023-07-08T10:17:29;30.80;58.20
8957;DHT22;4513;50.054;8.230;2023-07-08T10:19:56;30.90;58.40
8957;DHT22;4513;50.054;8.230;2023-07-08T10:22:35;31.20;57.70
8957;DHT22;4513;50.054;8.230;2023-07-08T10:25:11;31.40;56.40
8957;DHT22;4513;50.054;8.230;2023-07-08T10:27:47;31.40;57.30
8957;DHT22;4513;50.054;8.230;2023-07-08T10:30:21;31.40;58.20
8957;DHT22;4513;50.054;8.230;2023-07-08T10:33:00;31.30;56.70
8957;DHT22;4513;50.054;8.230;2023-07-08T10:35:35;31.10;56.80
8957;DHT22;4513;50.054;8.230;2023-07-08T10:38:16;30.90;57.20
8957;DHT22;4513;50.054;8.230;2023-07-08T10:40:48;30.90;57.70
8957;DHT22;4513;50.054;8.230;2023-07-08T10:43:36;30.90;57.30
8957;DHT22;4513;50.054;8.230;2023-07-08T10:46:23;31.10;57.60
8957;DHT22;4513;50.054;8.230;2023-07-08T10:49:10;31.10;57.60
8957;DHT22;4513;50.054;8.230;2023-07-08T10:51:46;31.20;57.60
8957;DHT22;4513;50.054;8.230;2023-07-08T10:54:30;31.50;58.80
8957;DHT22;4513;50.054;8.230;2023-07-08T10:57:06;31.80;57.70
8957;DHT22;4513;50.054;8.230;2023-07-08T10:59:44;31.80;57.00
8957;DHT22;4513;50.054;8.230;2023-07-08T11:02:37;31.80;57.10
8957;DHT22;4513;50.054;8.230;2023-07-08T11:05:22;31.80;58.10
8957;DHT22;4513;50.054;8.230;2023-07-08T11:07:53;31.80;57.60
8957;DHT22;4513;50.054;8.230;2023-07-08T11:10:23;31.90;57.50
8957;DHT22;4513;50.054;8.230;2023-07-08T11:12:55;31.60;58.00
8957;DHT22;4513;50.054;8.230;2023-07-08T11:15:26;31.40;58.80
8957;DHT22;4513;50.054;8.230;2023-07-08T11:17:58;31.40;58.70
8957;DHT22;4513;50.054;8.230;2023-07-08T11:20:34;31.30;59.90
8957;DHT22;4513;50.054;8.230;2023-07-08T11:23:05;31.40;59.20
8957;DHT22;4513;50.054;8.230;2023-07-08T11:25:35;31.50;60.80
8957;DHT22;4513;50.054;8.230;2023-07-08T11:28:10;31.70;61.40
8957;DHT22;4513;50.054;8.230;2023-07-08T11:30:38;31.70;59.00
8957;DHT22;4513;50.054;8.230;2023-07-08T11:33:10;31.70;58.80
8957;DHT22;4513;50.054;8.230;2023-07-08T11:35:42;31.60;59.60
8957;DHT22;4513;50.054;8.230;2023-07-08T11:38:13;31.50;59.30
8957;DHT22;4513;50.054;8.230;2023-07-08T11:40:53;31.50;59.60
8957;DHT22;4513;50.054;8.230;2023-07-08T11:43:24;31.50;59.60
8957;DHT22;4513;50.054;8.230;2023-07-08T11:45:55;31.60;59.20
8957;DHT22;4513;50.054;8.230;2023-07-08T11:48:25;31.40;59.30
8957;DHT22;4513;50.054;8.230;2023-07-08T11:50:55;31.50;59.70
8957;DHT22;4513;50.054;8.230;2023-07-08T11:53:35;31.60;59.50
8957;DHT22;4513;50.054;8.230;2023-07-08T11:56:04;31.70;60.00
8957;DHT22;4513;50.054;8.230;2023-07-08T11:58:57;31.70;59.50
8957;DHT22;4513;50.054;8.230;2023-07-08T12:01:27;31.90;59.60
8957;DHT22;4513;50.054;8.230;2023-07-08T12:03:58;32.10;58.40
8957;DHT22;4513;50.054;8.230;2023-07-08T12:06:47;32.00;59.40
8957;DHT22;4513;50.054;8.230;2023-07-08T12:09:20;32.00;58.90
8957;DHT22;4513;50.054;8.230;2023-07-08T12:11:53;32.00;59.20
8957;DHT22;4513;50.054;8.230;2023-07-08T12:14:20;32.10;58.80
8957;DHT22;4513;50.054;8.230;2023-07-08T12:16:49;32.00;59.60
8957;DHT22;4513;50.054;8.230;2023-07-08T12:19:17;32.20;59.40
8957;DHT22;4513;50.054;8.230;2023-07-08T12:21:46;32.20;59.70
8957;DHT22;4513;50.054;8.230;2023-07-08T12:24:14;32.20;58.60
8957;DHT22;4513;50.054;8.230;2023-07-08T12:26:42;32.20;58.90
8957;DHT22;4513;50.054;8.230;2023-07-08T12:29:11;32.40;59.50
8957;DHT22;4513;50.054;8.230;2023-07-08T12:31:40;32.50;59.90
8957;DHT22;4513;50.054;8.230;2023-07-08T12:34:12;32.60;58.90
8957;DHT22;4513;50.054;8.230;2023-07-08T12:36:39;32.80;58.40
8957;DHT22;4513;50.054;8.230;2023-07-08T12:39:11;32.80;58.90
8957;DHT22;4513;50.054;8.230;2023-07-08T12:41:41;32.70;58.30
8957;DHT22;4513;50.054;8.230;2023-07-08T12:44:15;32.70;57.60
8957;DHT22;4513;50.054;8.230;2023-07-08T12:46:44;32.90;57.90
8957;DHT22;4513;50.054;8.230;2023-07-08T12:49:14;33.00;57.50
8957;DHT22;4513;50.054;8.230;2023-07-08T12:51:42;33.10;57.50
8957;DHT22;4513;50.054;8.230;2023-07-08T12:54:10;33.30;56.40
8957;DHT22;4513;50.054;8.230;2023-07-08T12:56:38;33.40;56.40
8957;DHT22;4513;50.054;8.230;2023-07-08T12:59:06;33.40;56.20
8957;DHT22;4513;50.054;8.230;2023-07-08T13:01:35;33.30;56.70
8957;DHT22;4513;50.054;8.230;2023-07-08T13:04:06;33.20;55.50
8957;DHT22;4513;50.054;8.230;2023-07-08T13:06:37;33.20;56.60
8957;DHT22;4513;50.054;8.230;2023-07-08T13:09:11;33.30;56.80
8957;DHT22;4513;50.054;8.230;2023-07-08T13:11:46;33.40;55.60
8957;DHT22;4513;50.054;8.230;2023-07-08T13:14:14;33.60;54.30
8957;DHT22;4513;50.054;8.230;2023-07-08T13:16:42;33.60;55.20
8957;DHT22;4513;50.054;8.230;2023-07-08T13:19:12;33.50;55.40
8957;DHT22;4513;50.054;8.230;2023-07-08T13:21:40;33.40;56.20
8957;DHT22;4513;50.054;8.230;2023-07-08T13:24:08;33.40;55.00
8957;DHT22;4513;50.054;8.230;2023-07-08T13:26:35;33.50;54.50
8957;DHT22;4513;50.054;8.230;2023-07-08T13:29:13;33.60;53.60
8957;DHT22;4513;50.054;8.230;2023-07-08T13:31:44;33.60;51.90
8957;DHT22;4513;50.054;8.230;2023-07-08T13:34:17;33.30;50.20
8957;DHT22;4513;50.054;8.230;2023-07-08T13:36:46;33.10;51.80
8957;DHT22;4513;50.054;8.230;2023-07-08T13:39:19;33.20;52.70
8957;DHT22;4513;50.054;8.230;2023-07-08T13:41:48;33.20;52.70
8957;DHT22;4513;50.054;8.230;2023-07-08T13:44:16;33.20;52.70
8957;DHT22;4513;50.054;8.230;2023-07-08T13:46:49;33.10;51.60
8957;DHT22;4513;50.054;8.230;2023-07-08T13:49:20;33.00;52.80
8957;DHT22;4513;50.054;8.230;2023-07-08T13:51:49;33.10;53.10
8957;DHT22;4513;50.054;8.230;2023-07-08T13:54:21;33.20;54.20
8957;DHT22;4513;50.054;8.230;2023-07-08T13:56:49;33.50;55.20
8957;DHT22;4513;50.054;8.230;2023-07-08T13:59:22;33.60;53.90
8957;DHT22;4513;50.054;8.230;2023-07-08T14:01:51;33.60;52.50
8957;DHT22;4513;50.054;8.230;2023-07-08T14:04:21;33.70;53.70
8957;DHT22;4513;50.054;8.230;2023-07-08T14:06:48;33.80;53.00
8957;DHT22;4513;50.054;8.230;2023-07-08T14:09:17;33.90;51.80
8957;DHT22;4513;50.054;8.230;2023-07-08T14:11:45;33.80;52.50
8957;DHT22;4513;50.054;8.230;2023-07-08T14:14:12;33.90;52.80
8957;DHT22;4513;50.054;8.230;2023-07-08T14:16:42;33.80;51.70
8957;DHT22;4513;50.054;8.230;2023-07-08T14:19:14;33.60;52.10
8957;DHT22;4513;50.054;8.230;2023-07-08T14:21:41;33.70;51.60
8957;DHT22;4513;50.054;8.230;2023-07-08T14:24:10;33.60;52.00
8957;DHT22;4513;50.054;8.230;2023-07-08T14:26:41;33.70;52.80
8957;DHT22;4513;50.054;8.230;2023-07-08T14:29:08;33.80;52.30
8957;DHT22;4513;50.054;8.230;2023-07-08T14:31:40;33.80;52.80
8957;DHT22;4513;50.054;8.230;2023-07-08T14:34:11;33.80;54.50
8957;DHT22;4513;50.054;8.230;2023-07-08T14:36:38;33.90;53.50
8957;DHT22;4513;50.054;8.230;2023-07-08T14:39:11;33.80;52.60
8957;DHT22;4513;50.054;8.230;2023-07-08T14:41:38;33.80;52.70
8957;DHT22;4513;50.054;8.230;2023-07-08T14:44:18;33.70;52.20
8957;DHT22;4513;50.054;8.230;2023-07-08T14:46:47;33.70;52.70
8957;DHT22;4513;50.054;8.230;2023-07-08T14:49:18;33.70;52.90
8957;DHT22;4513;50.054;8.230;2023-07-08T14:51:45;33.60;52.80
8957;DHT22;4513;50.054;8.230;2023-07-08T14:54:12;33.60;52.90
8957;DHT22;4513;50.054;8.230;2023-07-08T14:56:40;33.50;52.70
8957;DHT22;4513;50.054;8.230;2023-07-08T14:59:13;33.60;53.10
8957;DHT22;4513;50.054;8.230;2023-07-08T15:01:41;33.60;53.70
8957;DHT22;4513;50.054;8.230;2023-07-08T15:04:10;33.60;51.60
8957;DHT22;4513;50.054;8.230;2023-07-08T15:06:38;33.40;51.30
8957;DHT22;4513;50.054;8.230;2023-07-08T15:09:05;33.50;52.00
8957;DHT22;4513;50.054;8.230;2023-07-08T15:11:33;33.50;52.80
8957;DHT22;4513;50.054;8.230;2023-07-08T15:14:01;33.40;54.50
8957;DHT22;4513;50.054;8.230;2023-07-08T15:16:28;33.40;53.10
8957;DHT22;4513;50.054;8.230;2023-07-08T15:18:55;33.40;54.00
8957;DHT22;4513;50.054;8.230;2023-07-08T15:21:23;33.30;52.30
8957;DHT22;4513;50.054;8.230;2023-07-08T15:23:51;33.20;53.60
8957;DHT22;4513;50.054;8.230;2023-07-08T15:26:18;33.30;53.40
8957;DHT22;4513;50.054;8.230;2023-07-08T15:28:47;33.30;52.20
8957;DHT22;4513;50.054;8.230;2023-07-08T15:31:15;33.40;52.60
8957;DHT22;4513;50.054;8.230;2023-07-08T15:33:43;33.30;52.20
8957;DHT22;4513;50.054;8.230;2023-07-08T15:36:11;33.30;53.10
8957;DHT22;4513;50.054;8.230;2023-07-08T15:38:39;33.40;53.00
8957;DHT22;4513;50.054;8.230;2023-07-08T15:43:39;33.30;53.70
8957;DHT22;4513;50.054;8.230;2023-07-08T15:46:07;33.30;53.80
8957;DHT22;4513;50.054;8.230;2023-07-08T15:48:34;33.20;53.20
8957;DHT22;4513;50.054;8.230;2023-07-08T15:51:01;33.00;53.20
8957;DHT22;4513;50.054;8.230;2023-07-08T15:53:28;32.90;54.20
8957;DHT22;4513;50.054;8.230;2023-07-08T15:55:55;32.90;55.50
8957;DHT22;4513;50.054;8.230;2023-07-08T15:58:27;33.00;54.80
8957;DHT22;4513;50.054;8.230;2023-07-08T16:00:55;33.10;55.00
8957;DHT22;4513;50.054;8.230;2023-07-08T16:03:23;33.10;54.50
8957;DHT22;4513;50.054;8.230;2023-07-08T16:05:51;33.20;54.50
8957;DHT22;4513;50.054;8.230;2023-07-08T16:08:18;33.20;54.30
8957;DHT22;4513;50.054;8.230;2023-07-08T16:10:49;33.10;53.70
8957;DHT22;4513;50.054;8.230;2023-07-08T16:13:20;33.10;54.60
8957;DHT22;4513;50.054;8.230;2023-07-08T16:15:50;32.90;54.60
8957;DHT22;4513;50.054;8.230;2023-07-08T16:18:17;32.80;54.70